aviador You're here:

SBPS Decoded Metar

PORTO SEGURO in BRAZIL
Report Time2018-07-22 03:00:00
UTC Time2018-07-22 03:06:26
Flight Rules vfr VFR
Wind270° at 04 kt
W.Decomp.*RWY 28: 3.9 kt HW 0.9 kt RCW
W.Rank270° ranks 13
Current wind is below 270° avg. (4.0)
Visibility9999 m
Phenomena:N/A
Clouds:N/A
Expected CloudBase > 400 ft AGL from Temp-Dew spread
CeilingNone
Temp19°C (ISA +4)
Dew Point18°C (94% RH)
QNH1019 hPa
Density Alt745 ft
Elevation167 ft
Report Wrong Elevation
Raw Report
METAR SBPS 220300Z 27004KT 240V300 CAVOK 19/18 Q1019=

Extra information for SBPS:More info

Metar Taf Metar & Taf Last 4 Metars F.Rules Stats Wind Profile Meteogram Temp Stats Airport Information Weather charts Add Link Nearby VenuesMetar ALERT Operation Metar Decoded Social comments